sensor_id;sensor_type;location;lat;lon;timestamp;temperature;humidity
7461;DHT22;6757;52.258;12.840;2024-03-17T00:00:27;0.80;99.90
7461;DHT22;6757;52.258;12.840;2024-03-17T00:02:55;0.80;99.90
7461;DHT22;6757;52.258;12.840;2024-03-17T00:05:22;0.80;99.90
7461;DHT22;6757;52.258;12.840;2024-03-17T00:07:49;0.70;99.90
7461;DHT22;6757;52.258;12.840;2024-03-17T00:10:17;0.70;99.90
7461;DHT22;6757;52.258;12.840;2024-03-17T00:12:44;0.70;99.90
7461;DHT22;6757;52.258;12.840;2024-03-17T00:17:40;0.60;99.90
7461;DHT22;6757;52.258;12.840;2024-03-17T00:20:07;0.60;99.90
7461;DHT22;6757;52.258;12.840;2024-03-17T00:22:46;0.60;99.90
7461;DHT22;6757;52.258;12.840;2024-03-17T00:25:13;0.60;99.90
7461;DHT22;6757;52.258;12.840;2024-03-17T00:27:40;0.50;99.90
7461;DHT22;6757;52.258;12.840;2024-03-17T00:30:08;0.50;99.90
7461;DHT22;6757;52.258;12.840;2024-03-17T00:32:38;0.50;99.90
7461;DHT22;6757;52.258;12.840;2024-03-17T00:35:07;0.50;99.90
7461;DHT22;6757;52.258;12.840;2024-03-17T00:37:39;0.40;99.90
7461;DHT22;6757;52.258;12.840;2024-03-17T00:40:10;0.40;99.90
7461;DHT22;6757;52.258;12.840;2024-03-17T00:42:37;0.40;99.90
7461;DHT22;6757;52.258;12.840;2024-03-17T00:45:04;0.40;99.90
7461;DHT22;6757;52.258;12.840;2024-03-17T00:47:33;0.40;99.90
7461;DHT22;6757;52.258;12.840;2024-03-17T00:52:29;0.40;99.90
7461;DHT22;6757;52.258;12.840;2024-03-17T00:54:55;0.30;99.90
7461;DHT22;6757;52.258;12.840;2024-03-17T00:57:26;0.30;99.90
7461;DHT22;6757;52.258;12.840;2024-03-17T00:59:52;0.30;99.90
7461;DHT22;6757;52.258;12.840;2024-03-17T01:02:19;0.30;99.90
7461;DHT22;6757;52.258;12.840;2024-03-17T01:04:48;0.20;99.90
7461;DHT22;6757;52.258;12.840;2024-03-17T01:07:15;0.20;99.90
7461;DHT22;6757;52.258;12.840;2024-03-17T01:09:41;0.20;99.90
7461;DHT22;6757;52.258;12.840;2024-03-17T01:12:08;0.10;99.90
7461;DHT22;6757;52.258;12.840;2024-03-17T01:14:36;0.10;99.90
7461;DHT22;6757;52.258;12.840;2024-03-17T01:17:03;0.10;99.90
7461;DHT22;6757;52.258;12.840;2024-03-17T01:19:30;0.00;99.90
7461;DHT22;6757;52.258;12.840;2024-03-17T01:22:00;0.00;99.90
7461;DHT22;6757;52.258;12.840;2024-03-17T01:24:28;0.00;99.90
7461;DHT22;6757;52.258;12.840;2024-03-17T01:26:58;0.00;99.90
7461;DHT22;6757;52.258;12.840;2024-03-17T01:31:52;0.00;99.90
7461;DHT22;6757;52.258;12.840;2024-03-17T01:34:18;0.10;99.90
7461;DHT22;6757;52.258;12.840;2024-03-17T01:36:45;0.10;99.90
7461;DHT22;6757;52.258;12.840;2024-03-17T01:39:11;0.20;99.90
7461;DHT22;6757;52.258;12.840;2024-03-17T01:41:39;0.30;99.90
7461;DHT22;6757;52.258;12.840;2024-03-17T01:44:07;0.40;99.90
7461;DHT22;6757;52.258;12.840;2024-03-17T01:46:33;0.40;99.90
7461;DHT22;6757;52.258;12.840;2024-03-17T01:49:02;0.50;99.90
7461;DHT22;6757;52.258;12.840;2024-03-17T01:51:30;0.50;99.90
7461;DHT22;6757;52.258;12.840;2024-03-17T01:53:56;0.40;99.90
7461;DHT22;6757;52.258;12.840;2024-03-17T01:56:23;0.50;99.90
7461;DHT22;6757;52.258;12.840;2024-03-17T01:58:50;0.60;99.90
7461;DHT22;6757;52.258;12.840;2024-03-17T02:01:16;0.60;99.90
7461;DHT22;6757;52.258;12.840;2024-03-17T02:03:43;0.60;99.90
7461;DHT22;6757;52.258;12.840;2024-03-17T02:06:12;0.60;99.90
7461;DHT22;6757;52.258;12.840;2024-03-17T02:08:49;0.60;99.90
7461;DHT22;6757;52.258;12.840;2024-03-17T02:11:24;0.60;99.90
7461;DHT22;6757;52.258;12.840;2024-03-17T02:13:53;0.70;99.90
7461;DHT22;6757;52.258;12.840;2024-03-17T02:16:21;0.70;99.90
7461;DHT22;6757;52.258;12.840;2024-03-17T02:18:48;0.70;99.90
7461;DHT22;6757;52.258;12.840;2024-03-17T02:21:16;0.70;99.90
7461;DHT22;6757;52.258;12.840;2024-03-17T02:23:44;0.70;99.90
7461;DHT22;6757;52.258;12.840;2024-03-17T02:26:10;0.80;99.90
7461;DHT22;6757;52.258;12.840;2024-03-17T02:28:40;0.80;99.90
7461;DHT22;6757;52.258;12.840;2024-03-17T02:31:08;0.80;99.90
7461;DHT22;6757;52.258;12.840;2024-03-17T02:33:38;0.80;99.90
7461;DHT22;6757;52.258;12.840;2024-03-17T02:36:06;0.80;99.90
7461;DHT22;6757;52.258;12.840;2024-03-17T02:38:33;0.80;99.90
7461;DHT22;6757;52.258;12.840;2024-03-17T02:41:19;0.90;99.90
7461;DHT22;6757;52.258;12.840;2024-03-17T02:43:47;0.90;99.90
7461;DHT22;6757;52.258;12.840;2024-03-17T02:46:15;0.90;99.90
7461;DHT22;6757;52.258;12.840;2024-03-17T02:48:45;0.90;99.90
7461;DHT22;6757;52.258;12.840;2024-03-17T02:51:14;0.90;99.90
7461;DHT22;6757;52.258;12.840;2024-03-17T02:53:42;0.90;99.90
7461;DHT22;6757;52.258;12.840;2024-03-17T02:56:10;0.90;99.90
7461;DHT22;6757;52.258;12.840;2024-03-17T02:58:44;0.90;99.90
7461;DHT22;6757;52.258;12.840;2024-03-17T03:01:11;0.90;99.90
7461;DHT22;6757;52.258;12.840;2024-03-17T03:03:40;1.00;99.90
7461;DHT22;6757;52.258;12.840;2024-03-17T03:06:07;0.90;99.90
7461;DHT22;6757;52.258;12.840;2024-03-17T03:08:37;0.90;99.90
7461;DHT22;6757;52.258;12.840;2024-03-17T03:11:06;0.90;99.90
7461;DHT22;6757;52.258;12.840;2024-03-17T03:13:37;0.90;99.90
7461;DHT22;6757;52.258;12.840;2024-03-17T03:16:08;0.90;99.90
7461;DHT22;6757;52.258;12.840;2024-03-17T03:18:37;0.90;99.90
7461;DHT22;6757;52.258;12.840;2024-03-17T03:21:06;0.80;99.90
7461;DHT22;6757;52.258;12.840;2024-03-17T03:23:34;0.80;99.90
7461;DHT22;6757;52.258;12.840;2024-03-17T03:26:03;0.80;99.90
7461;DHT22;6757;52.258;12.840;2024-03-17T03:28:34;0.70;99.90
7461;DHT22;6757;52.258;12.840;2024-03-17T03:31:02;0.60;99.90
7461;DHT22;6757;52.258;12.840;2024-03-17T03:33:32;0.60;99.90
7461;DHT22;6757;52.258;12.840;2024-03-17T03:35:59;0.50;99.90
7461;DHT22;6757;52.258;12.840;2024-03-17T03:38:33;0.50;99.90
7461;DHT22;6757;52.258;12.840;2024-03-17T03:41:06;0.40;99.90
7461;DHT22;6757;52.258;12.840;2024-03-17T03:43:36;0.40;99.90
7461;DHT22;6757;52.258;12.840;2024-03-17T03:46:04;0.30;99.90
7461;DHT22;6757;52.258;12.840;2024-03-17T03:48:36;0.20;99.90
7461;DHT22;6757;52.258;12.840;2024-03-17T03:51:04;0.20;99.90
7461;DHT22;6757;52.258;12.840;2024-03-17T03:53:30;0.10;99.90
7461;DHT22;6757;52.258;12.840;2024-03-17T03:56:00;0.10;99.90
7461;DHT22;6757;52.258;12.840;2024-03-17T03:58:31;0.00;99.90
7461;DHT22;6757;52.258;12.840;2024-03-17T04:00:59;0.00;99.90
7461;DHT22;6757;52.258;12.840;2024-03-17T04:03:27;0.00;99.90
7461;DHT22;6757;52.258;12.840;2024-03-17T04:06:02;-0.10;99.90
7461;DHT22;6757;52.258;12.840;2024-03-17T04:08:30;-0.10;99.90
7461;DHT22;6757;52.258;12.840;2024-03-17T04:10:58;-0.20;99.90
7461;DHT22;6757;52.258;12.840;2024-03-17T04:13:27;-0.20;99.90
7461;DHT22;6757;52.258;12.840;2024-03-17T04:15:54;-0.20;99.90
7461;DHT22;6757;52.258;12.840;2024-03-17T04:18:22;-0.20;99.90
7461;DHT22;6757;52.258;12.840;2024-03-17T04:20:50;-0.30;99.90
7461;DHT22;6757;52.258;12.840;2024-03-17T04:23:22;-0.40;99.90
7461;DHT22;6757;52.258;12.840;2024-03-17T04:25:50;-0.40;99.90
7461;DHT22;6757;52.258;12.840;2024-03-17T04:28:18;-0.40;99.90
7461;DHT22;6757;52.258;12.840;2024-03-17T04:30:45;-0.50;99.90
7461;DHT22;6757;52.258;12.840;2024-03-17T04:33:13;-0.50;99.90
7461;DHT22;6757;52.258;12.840;2024-03-17T04:35:41;-0.60;99.90
7461;DHT22;6757;52.258;12.840;2024-03-17T04:38:08;-0.60;99.90
7461;DHT22;6757;52.258;12.840;2024-03-17T04:40:40;0.70;99.90
7461;DHT22;6757;52.258;12.840;2024-03-17T04:43:07;-0.60;99.90
7461;DHT22;6757;52.258;12.840;2024-03-17T04:45:34;-0.70;99.90
7461;DHT22;6757;52.258;12.840;2024-03-17T04:48:03;-0.70;99.90
7461;DHT22;6757;52.258;12.840;2024-03-17T04:50:30;-0.80;99.90
7461;DHT22;6757;52.258;12.840;2024-03-17T04:52:58;-0.90;99.90
7461;DHT22;6757;52.258;12.840;2024-03-17T04:55:26;-0.80;99.90
7461;DHT22;6757;52.258;12.840;2024-03-17T04:57:56;-0.90;99.90
7461;DHT22;6757;52.258;12.840;2024-03-17T05:00:23;-0.90;99.90
7461;DHT22;6757;52.258;12.840;2024-03-17T05:02:50;-0.90;99.90
7461;DHT22;6757;52.258;12.840;2024-03-17T05:05:22;-1.00;99.90
7461;DHT22;6757;52.258;12.840;2024-03-17T05:07:50;-0.10;99.90
7461;DHT22;6757;52.258;12.840;2024-03-17T05:10:18;-1.20;99.90
7461;DHT22;6757;52.258;12.840;2024-03-17T05:12:45;-1.00;99.90
7461;DHT22;6757;52.258;12.840;2024-03-17T05:15:14;-1.10;99.90
7461;DHT22;6757;52.258;12.840;2024-03-17T05:17:42;-1.10;99.90
7461;DHT22;6757;52.258;12.840;2024-03-17T05:20:10;-1.10;99.90
7461;DHT22;6757;52.258;12.840;2024-03-17T05:22:41;-1.10;99.90
7461;DHT22;6757;52.258;12.840;2024-03-17T05:25:10;-1.10;99.90
7461;DHT22;6757;52.258;12.840;2024-03-17T05:27:38;-1.10;99.90
7461;DHT22;6757;52.258;12.840;2024-03-17T05:30:06;-1.00;99.90
7461;DHT22;6757;52.258;12.840;2024-03-17T05:32:36;-1.00;99.90
7461;DHT22;6757;52.258;12.840;2024-03-17T05:35:04;-1.00;99.90
7461;DHT22;6757;52.258;12.840;2024-03-17T05:37:31;-1.00;99.90
7461;DHT22;6757;52.258;12.840;2024-03-17T05:39:59;-1.00;99.90
7461;DHT22;6757;52.258;12.840;2024-03-17T05:42:27;-1.00;99.90
7461;DHT22;6757;52.258;12.840;2024-03-17T05:44:54;-1.00;99.90
7461;DHT22;6757;52.258;12.840;2024-03-17T05:47:22;-1.10;99.90
7461;DHT22;6757;52.258;12.840;2024-03-17T05:49:51;-1.00;99.90
7461;DHT22;6757;52.258;12.840;2024-03-17T05:52:19;-1.00;99.90
7461;DHT22;6757;52.258;12.840;2024-03-17T05:54:47;-0.90;99.90
7461;DHT22;6757;52.258;12.840;2024-03-17T05:57:14;-0.90;99.90
7461;DHT22;6757;52.258;12.840;2024-03-17T05:59:42;-0.90;99.90
7461;DHT22;6757;52.258;12.840;2024-03-17T06:02:09;-0.90;99.90
7461;DHT22;6757;52.258;12.840;2024-03-17T06:04:36;-0.90;99.90
7461;DHT22;6757;52.258;12.840;2024-03-17T06:07:05;-0.80;99.90
7461;DHT22;6757;52.258;12.840;2024-03-17T06:09:33;-0.70;99.90
7461;DHT22;6757;52.258;12.840;2024-03-17T06:11:59;-0.60;99.90
7461;DHT22;6757;52.258;12.840;2024-03-17T06:14:26;-0.60;99.90
7461;DHT22;6757;52.258;12.840;2024-03-17T06:16:54;-0.30;99.90
7461;DHT22;6757;52.258;12.840;2024-03-17T06:19:21;-0.30;99.90
7461;DHT22;6757;52.258;12.840;2024-03-17T06:21:48;-0.30;99.90
7461;DHT22;6757;52.258;12.840;2024-03-17T06:24:19;0.00;99.90
7461;DHT22;6757;52.258;12.840;2024-03-17T06:26:46;-0.10;99.90
7461;DHT22;6757;52.258;12.840;2024-03-17T06:29:14;-0.20;99.90
7461;DHT22;6757;52.258;12.840;2024-03-17T06:31:41;0.00;99.90
7461;DHT22;6757;52.258;12.840;2024-03-17T06:34:08;0.00;99.90
7461;DHT22;6757;52.258;12.840;2024-03-17T06:36:35;0.20;99.90
7461;DHT22;6757;52.258;12.840;2024-03-17T06:39:02;0.30;99.90
7461;DHT22;6757;52.258;12.840;2024-03-17T06:41:32;0.40;99.90
7461;DHT22;6757;52.258;12.840;2024-03-17T06:43:59;0.50;99.90
7461;DHT22;6757;52.258;12.840;2024-03-17T06:46:26;0.60;99.90
7461;DHT22;6757;52.258;12.840;2024-03-17T06:48:54;0.70;99.90
7461;DHT22;6757;52.258;12.840;2024-03-17T06:51:23;0.90;99.90
7461;DHT22;6757;52.258;12.840;2024-03-17T06:53:50;1.50;99.90
7461;DHT22;6757;52.258;12.840;2024-03-17T06:56:19;1.20;99.90
7461;DHT22;6757;52.258;12.840;2024-03-17T06:58:48;1.20;99.90
7461;DHT22;6757;52.258;12.840;2024-03-17T07:01:15;1.30;99.90
7461;DHT22;6757;52.258;12.840;2024-03-17T07:03:42;1.40;99.90
7461;DHT22;6757;52.258;12.840;2024-03-17T07:06:11;2.40;99.90
7461;DHT22;6757;52.258;12.840;2024-03-17T07:08:39;1.60;99.90
7461;DHT22;6757;52.258;12.840;2024-03-17T07:11:07;1.80;99.90
7461;DHT22;6757;52.258;12.840;2024-03-17T07:13:36;1.90;99.90
7461;DHT22;6757;52.258;12.840;2024-03-17T07:16:06;2.00;99.90
7461;DHT22;6757;52.258;12.840;2024-03-17T07:18:33;2.30;99.90
7461;DHT22;6757;52.258;12.840;2024-03-17T07:21:03;2.80;99.90
7461;DHT22;6757;52.258;12.840;2024-03-17T07:23:30;2.40;99.90
7461;DHT22;6757;52.258;12.840;2024-03-17T07:26:00;2.40;99.90
7461;DHT22;6757;52.258;12.840;2024-03-17T07:28:28;2.60;99.90
7461;DHT22;6757;52.258;12.840;2024-03-17T07:30:58;3.10;99.90
7461;DHT22;6757;52.258;12.840;2024-03-17T07:33:27;2.90;99.90
7461;DHT22;6757;52.258;12.840;2024-03-17T07:35:56;3.00;99.90
7461;DHT22;6757;52.258;12.840;2024-03-17T07:38:27;3.40;99.90
7461;DHT22;6757;52.258;12.840;2024-03-17T07:40:56;3.30;99.90
7461;DHT22;6757;52.258;12.840;2024-03-17T07:43:23;4.00;99.90
7461;DHT22;6757;52.258;12.840;2024-03-17T07:46:00;3.50;99.90
7461;DHT22;6757;52.258;12.840;2024-03-17T07:48:29;3.50;99.90
7461;DHT22;6757;52.258;12.840;2024-03-17T07:50:59;3.60;99.90
7461;DHT22;6757;52.258;12.840;2024-03-17T07:53:29;3.70;99.90
7461;DHT22;6757;52.258;12.840;2024-03-17T07:56:00;3.80;99.90
7461;DHT22;6757;52.258;12.840;2024-03-17T07:58:29;3.90;99.90
7461;DHT22;6757;52.258;12.840;2024-03-17T08:00:58;3.90;99.90
7461;DHT22;6757;52.258;12.840;2024-03-17T08:03:29;4.00;99.90
7461;DHT22;6757;52.258;12.840;2024-03-17T08:05:58;4.10;99.90
7461;DHT22;6757;52.258;12.840;2024-03-17T08:08:26;4.20;99.90
7461;DHT22;6757;52.258;12.840;2024-03-17T08:10:54;4.50;99.90
7461;DHT22;6757;52.258;12.840;2024-03-17T08:13:24;4.30;99.90
7461;DHT22;6757;52.258;12.840;2024-03-17T08:15:58;4.40;99.90
7461;DHT22;6757;52.258;12.840;2024-03-17T08:18:28;4.50;99.90
7461;DHT22;6757;52.258;12.840;2024-03-17T08:20:55;4.50;99.90
7461;DHT22;6757;52.258;12.840;2024-03-17T08:23:23;4.70;99.90
7461;DHT22;6757;52.258;12.840;2024-03-17T08:25:53;4.70;99.90
7461;DHT22;6757;52.258;12.840;2024-03-17T08:28:20;4.70;99.90
7461;DHT22;6757;52.258;12.840;2024-03-17T08:30:52;4.80;99.90
7461;DHT22;6757;52.258;12.840;2024-03-17T08:33:20;4.90;99.90
7461;DHT22;6757;52.258;12.840;2024-03-17T08:35:57;4.90;99.90
7461;DHT22;6757;52.258;12.840;2024-03-17T08:38:25;5.00;99.90
7461;DHT22;6757;52.258;12.840;2024-03-17T08:40:53;5.00;99.90
7461;DHT22;6757;52.258;12.840;2024-03-17T08:43:22;5.20;99.90
7461;DHT22;6757;52.258;12.840;2024-03-17T08:45:55;5.30;99.90
7461;DHT22;6757;52.258;12.840;2024-03-17T08:48:26;5.20;99.90
7461;DHT22;6757;52.258;12.840;2024-03-17T08:50:57;5.30;99.90
7461;DHT22;6757;52.258;12.840;2024-03-17T08:53:25;5.40;99.90
7461;DHT22;6757;52.258;12.840;2024-03-17T08:55:53;5.40;99.90
7461;DHT22;6757;52.258;12.840;2024-03-17T08:58:21;5.50;99.90
7461;DHT22;6757;52.258;12.840;2024-03-17T09:00:48;5.50;99.90
7461;DHT22;6757;52.258;12.840;2024-03-17T09:03:16;5.60;99.90
7461;DHT22;6757;52.258;12.840;2024-03-17T09:05:44;5.60;99.90
7461;DHT22;6757;52.258;12.840;2024-03-17T09:08:17;5.60;99.90
7461;DHT22;6757;52.258;12.840;2024-03-17T09:10:48;5.70;99.90
7461;DHT22;6757;52.258;12.840;2024-03-17T09:13:17;5.70;99.90
7461;DHT22;6757;52.258;12.840;2024-03-17T09:15:52;5.80;99.90
7461;DHT22;6757;52.258;12.840;2024-03-17T09:18:19;5.80;99.90
7461;DHT22;6757;52.258;12.840;2024-03-17T09:20:54;5.90;99.90
7461;DHT22;6757;52.258;12.840;2024-03-17T09:23:23;5.90;99.90
7461;DHT22;6757;52.258;12.840;2024-03-17T09:25:57;5.90;99.90
7461;DHT22;6757;52.258;12.840;2024-03-17T09:28:26;5.90;99.90
7461;DHT22;6757;52.258;12.840;2024-03-17T09:30:54;6.00;99.90
7461;DHT22;6757;52.258;12.840;2024-03-17T09:33:22;6.00;99.90
7461;DHT22;6757;52.258;12.840;2024-03-17T09:35:55;6.00;99.90
7461;DHT22;6757;52.258;12.840;2024-03-17T09:38:24;6.10;99.90
7461;DHT22;6757;52.258;12.840;2024-03-17T09:40:53;6.10;99.90
7461;DHT22;6757;52.258;12.840;2024-03-17T09:43:23;6.40;99.90
7461;DHT22;6757;52.258;12.840;2024-03-17T09:45:51;6.50;99.90
7461;DHT22;6757;52.258;12.840;2024-03-17T09:48:21;6.40;99.90
7461;DHT22;6757;52.258;12.840;2024-03-17T09:50:51;6.50;99.90
7461;DHT22;6757;52.258;12.840;2024-03-17T09:53:24;6.50;99.90
7461;DHT22;6757;52.258;12.840;2024-03-17T09:55:56;6.50;99.90
7461;DHT22;6757;52.258;12.840;2024-03-17T09:58:22;6.50;99.90
7461;DHT22;6757;52.258;12.840;2024-03-17T10:00:49;6.70;99.90
7461;DHT22;6757;52.258;12.840;2024-03-17T10:03:41;6.40;99.90
7461;DHT22;6757;52.258;12.840;2024-03-17T10:06:10;6.70;99.90
7461;DHT22;6757;52.258;12.840;2024-03-17T10:08:42;6.90;99.90
7461;DHT22;6757;52.258;12.840;2024-03-17T10:11:11;6.90;99.90
7461;DHT22;6757;52.258;12.840;2024-03-17T10:13:39;7.00;99.90
7461;DHT22;6757;52.258;12.840;2024-03-17T10:16:20;7.10;99.90
7461;DHT22;6757;52.258;12.840;2024-03-17T10:18:49;7.10;99.90
7461;DHT22;6757;52.258;12.840;2024-03-17T10:21:25;7.20;99.90
7461;DHT22;6757;52.258;12.840;2024-03-17T10:24:09;7.20;99.90
7461;DHT22;6757;52.258;12.840;2024-03-17T10:26:41;7.20;99.90
7461;DHT22;6757;52.258;12.840;2024-03-17T10:29:20;7.30;99.90
7461;DHT22;6757;52.258;12.840;2024-03-17T10:31:52;7.30;99.90
7461;DHT22;6757;52.258;12.840;2024-03-17T10:34:20;7.20;99.90
7461;DHT22;6757;52.258;12.840;2024-03-17T10:36:51;7.20;99.90
7461;DHT22;6757;52.258;12.840;2024-03-17T10:39:25;7.30;99.90
7461;DHT22;6757;52.258;12.840;2024-03-17T10:41:56;7.30;99.90
7461;DHT22;6757;52.258;12.840;2024-03-17T10:44:26;7.40;99.90
7461;DHT22;6757;52.258;12.840;2024-03-17T10:46:55;7.40;99.90
7461;DHT22;6757;52.258;12.840;2024-03-17T10:49:29;7.50;99.90
7461;DHT22;6757;52.258;12.840;2024-03-17T10:51:59;7.60;99.90
7461;DHT22;6757;52.258;12.840;2024-03-17T10:54:29;7.70;99.90
7461;DHT22;6757;52.258;12.840;2024-03-17T10:56:57;7.70;99.90
7461;DHT22;6757;52.258;12.840;2024-03-17T10:59:38;7.80;99.90
7461;DHT22;6757;52.258;12.840;2024-03-17T11:02:20;7.80;99.90
7461;DHT22;6757;52.258;12.840;2024-03-17T11:04:50;7.90;99.90
7461;DHT22;6757;52.258;12.840;2024-03-17T11:07:19;8.00;99.90
7461;DHT22;6757;52.258;12.840;2024-03-17T11:09:51;8.10;99.90
7461;DHT22;6757;52.258;12.840;2024-03-17T11:12:44;8.10;99.90
7461;DHT22;6757;52.258;12.840;2024-03-17T11:15:36;8.20;99.90
7461;DHT22;6757;52.258;12.840;2024-03-17T11:18:33;8.20;99.90
7461;DHT22;6757;52.258;12.840;2024-03-17T11:21:02;8.30;99.90
7461;DHT22;6757;52.258;12.840;2024-03-17T11:23:40;8.40;99.90
7461;DHT22;6757;52.258;12.840;2024-03-17T11:26:10;8.60;99.90
7461;DHT22;6757;52.258;12.840;2024-03-17T11:28:52;8.60;99.90
7461;DHT22;6757;52.258;12.840;2024-03-17T11:31:41;8.80;99.90
7461;DHT22;6757;52.258;12.840;2024-03-17T11:34:32;8.80;99.90
7461;DHT22;6757;52.258;12.840;2024-03-17T11:37:01;8.90;99.90
7461;DHT22;6757;52.258;12.840;2024-03-17T11:39:53;8.90;99.90
7461;DHT22;6757;52.258;12.840;2024-03-17T11:42:25;9.10;99.90
7461;DHT22;6757;52.258;12.840;2024-03-17T11:44:59;9.60;99.90
7461;DHT22;6757;52.258;12.840;2024-03-17T11:47:34;10.10;99.90
7461;DHT22;6757;52.258;12.840;2024-03-17T11:50:04;10.70;99.90
7461;DHT22;6757;52.258;12.840;2024-03-17T11:52:32;11.20;99.90
7461;DHT22;6757;52.258;12.840;2024-03-17T11:55:00;11.50;99.90
7461;DHT22;6757;52.258;12.840;2024-03-17T11:57:28;11.80;99.90
7461;DHT22;6757;52.258;12.840;2024-03-17T11:59:56;12.00;99.90
7461;DHT22;6757;52.258;12.840;2024-03-17T12:02:25;12.10;99.90
7461;DHT22;6757;52.258;12.840;2024-03-17T12:04:56;12.30;99.90
7461;DHT22;6757;52.258;12.840;2024-03-17T12:07:23;12.60;99.90
7461;DHT22;6757;52.258;12.840;2024-03-17T12:09:51;12.50;99.90
7461;DHT22;6757;52.258;12.840;2024-03-17T12:12:20;12.30;99.90
7461;DHT22;6757;52.258;12.840;2024-03-17T12:14:51;12.20;99.90
7461;DHT22;6757;52.258;12.840;2024-03-17T12:17:19;12.00;99.90
7461;DHT22;6757;52.258;12.840;2024-03-17T12:19:47;11.80;99.90
7461;DHT22;6757;52.258;12.840;2024-03-17T12:22:17;11.60;99.90
7461;DHT22;6757;52.258;12.840;2024-03-17T12:24:48;11.40;99.90
7461;DHT22;6757;52.258;12.840;2024-03-17T12:27:21;11.00;99.90
7461;DHT22;6757;52.258;12.840;2024-03-17T12:29:52;11.00;99.90
7461;DHT22;6757;52.258;12.840;2024-03-17T12:32:21;10.90;99.90
7461;DHT22;6757;52.258;12.840;2024-03-17T12:34:50;10.80;99.90
7461;DHT22;6757;52.258;12.840;2024-03-17T12:37:19;10.60;99.90
7461;DHT22;6757;52.258;12.840;2024-03-17T12:39:46;10.60;99.90
7461;DHT22;6757;52.258;12.840;2024-03-17T12:42:15;10.70;99.90
7461;DHT22;6757;52.258;12.840;2024-03-17T12:44:49;10.90;99.90
7461;DHT22;6757;52.258;12.840;2024-03-17T12:47:20;11.10;99.90
7461;DHT22;6757;52.258;12.840;2024-03-17T12:49:49;11.40;99.90
7461;DHT22;6757;52.258;12.840;2024-03-17T12:52:19;11.80;99.90
7461;DHT22;6757;52.258;12.840;2024-03-17T12:54:56;12.10;99.90
7461;DHT22;6757;52.258;12.840;2024-03-17T12:57:47;12.60;99.90
7461;DHT22;6757;52.258;12.840;2024-03-17T13:00:33;12.90;99.90
7461;DHT22;6757;52.258;12.840;2024-03-17T13:03:01;13.10;99.80
7461;DHT22;6757;52.258;12.840;2024-03-17T13:05:27;13.20;99.70
7461;DHT22;6757;52.258;12.840;2024-03-17T13:07:55;13.30;99.70
7461;DHT22;6757;52.258;12.840;2024-03-17T13:10:24;13.40;99.50
7461;DHT22;6757;52.258;12.840;2024-03-17T13:12:59;13.40;99.10
7461;DHT22;6757;52.258;12.840;2024-03-17T13:15:28;13.50;98.80
7461;DHT22;6757;52.258;12.840;2024-03-17T13:17:57;13.50;98.20
7461;DHT22;6757;52.258;12.840;2024-03-17T13:20:25;13.50;97.40
7461;DHT22;6757;52.258;12.840;2024-03-17T13:22:53;13.60;96.90
7461;DHT22;6757;52.258;12.840;2024-03-17T13:25:21;13.80;97.10
7461;DHT22;6757;52.258;12.840;2024-03-17T13:27:55;14.00;97.20
7461;DHT22;6757;52.258;12.840;2024-03-17T13:30:24;14.30;96.80
7461;DHT22;6757;52.258;12.840;2024-03-17T13:32:53;14.50;96.00
7461;DHT22;6757;52.258;12.840;2024-03-17T13:35:25;14.40;95.20
7461;DHT22;6757;52.258;12.840;2024-03-17T13:37:55;14.20;94.60
7461;DHT22;6757;52.258;12.840;2024-03-17T13:40:26;13.90;94.20
7461;DHT22;6757;52.258;12.840;2024-03-17T13:42:55;13.40;93.70
7461;DHT22;6757;52.258;12.840;2024-03-17T13:45:25;13.00;93.90
7461;DHT22;6757;52.258;12.840;2024-03-17T13:47:57;12.70;94.20
7461;DHT22;6757;52.258;12.840;2024-03-17T13:50:27;12.40;94.50
7461;DHT22;6757;52.258;12.840;2024-03-17T13:52:55;12.20;94.90
7461;DHT22;6757;52.258;12.840;2024-03-17T13:55:24;12.30;95.40
7461;DHT22;6757;52.258;12.840;2024-03-17T13:57:53;13.20;95.10
7461;DHT22;6757;52.258;12.840;2024-03-17T14:00:23;13.30;95.30
7461;DHT22;6757;52.258;12.840;2024-03-17T14:02:51;14.00;95.30
7461;DHT22;6757;52.258;12.840;2024-03-17T14:05:21;14.70;94.30
7461;DHT22;6757;52.258;12.840;2024-03-17T14:07:51;15.20;93.50
7461;DHT22;6757;52.258;12.840;2024-03-17T14:10:19;15.40;92.80
7461;DHT22;6757;52.258;12.840;2024-03-17T14:12:48;15.30;92.50
7461;DHT22;6757;52.258;12.840;2024-03-17T14:15:15;15.40;92.50
7461;DHT22;6757;52.258;12.840;2024-03-17T14:17:44;15.40;92.50
7461;DHT22;6757;52.258;12.840;2024-03-17T14:20:15;15.40;92.40
7461;DHT22;6757;52.258;12.840;2024-03-17T14:22:45;15.20;92.20
7461;DHT22;6757;52.258;12.840;2024-03-17T14:25:17;15.00;92.10
7461;DHT22;6757;52.258;12.840;2024-03-17T14:27:45;15.10;92.10
7461;DHT22;6757;52.258;12.840;2024-03-17T14:30:16;15.50;91.90
7461;DHT22;6757;52.258;12.840;2024-03-17T14:32:45;15.80;91.30
7461;DHT22;6757;52.258;12.840;2024-03-17T14:35:14;16.10;90.10
7461;DHT22;6757;52.258;12.840;2024-03-17T14:37:42;16.30;87.70
7461;DHT22;6757;52.258;12.840;2024-03-17T14:40:15;16.30;84.60
7461;DHT22;6757;52.258;12.840;2024-03-17T14:42:47;16.30;84.20
7461;DHT22;6757;52.258;12.840;2024-03-17T14:45:16;16.50;83.30
7461;DHT22;6757;52.258;12.840;2024-03-17T14:47:44;16.70;82.10
7461;DHT22;6757;52.258;12.840;2024-03-17T14:50:12;16.90;80.80
7461;DHT22;6757;52.258;12.840;2024-03-17T14:52:39;17.00;79.90
7461;DHT22;6757;52.258;12.840;2024-03-17T14:55:07;17.20;79.30
7461;DHT22;6757;52.258;12.840;2024-03-17T14:57:37;17.40;77.80
7461;DHT22;6757;52.258;12.840;2024-03-17T15:00:06;17.40;76.40
7461;DHT22;6757;52.258;12.840;2024-03-17T15:02:41;17.50;75.80
7461;DHT22;6757;52.258;12.840;2024-03-17T15:05:08;17.50;75.00
7461;DHT22;6757;52.258;12.840;2024-03-17T15:07:37;17.60;74.60
7461;DHT22;6757;52.258;12.840;2024-03-17T15:10:05;17.60;74.10
7461;DHT22;6757;52.258;12.840;2024-03-17T15:12:36;17.70;73.60
7461;DHT22;6757;52.258;12.840;2024-03-17T15:15:06;17.90;73.20
7461;DHT22;6757;52.258;12.840;2024-03-17T15:17:34;17.90;72.70
7461;DHT22;6757;52.258;12.840;2024-03-17T15:19:59;17.90;72.50
7461;DHT22;6757;52.258;12.840;2024-03-17T15:22:33;17.90;72.40
7461;DHT22;6757;52.258;12.840;2024-03-17T15:25:01;18.00;72.70
7461;DHT22;6757;52.258;12.840;2024-03-17T15:27:30;18.00;72.80
7461;DHT22;6757;52.258;12.840;2024-03-17T15:29:59;18.10;73.10
7461;DHT22;6757;52.258;12.840;2024-03-17T15:32:28;18.30;73.40
7461;DHT22;6757;52.258;12.840;2024-03-17T15:34:55;18.50;73.00
7461;DHT22;6757;52.258;12.840;2024-03-17T15:37:24;18.80;72.80
7461;DHT22;6757;52.258;12.840;2024-03-17T15:39:51;19.00;72.40
7461;DHT22;6757;52.258;12.840;2024-03-17T15:42:21;19.10;72.00
7461;DHT22;6757;52.258;12.840;2024-03-17T15:44:52;19.20;71.80
7461;DHT22;6757;52.258;12.840;2024-03-17T15:47:20;19.20;71.50
7461;DHT22;6757;52.258;12.840;2024-03-17T15:49:48;19.10;70.90
7461;DHT22;6757;52.258;12.840;2024-03-17T15:52:16;18.80;70.40
7461;DHT22;6757;52.258;12.840;2024-03-17T15:54:45;18.40;70.00
7461;DHT22;6757;52.258;12.840;2024-03-17T15:57:13;18.00;70.00
7461;DHT22;6757;52.258;12.840;2024-03-17T15:59:41;17.50;69.70
7461;DHT22;6757;52.258;12.840;2024-03-17T16:02:09;16.90;69.60
7461;DHT22;6757;52.258;12.840;2024-03-17T16:04:39;16.30;69.80
7461;DHT22;6757;52.258;12.840;2024-03-17T16:07:06;15.70;70.40
7461;DHT22;6757;52.258;12.840;2024-03-17T16:09:36;15.20;71.10
7461;DHT22;6757;52.258;12.840;2024-03-17T16:12:03;14.70;71.80
7461;DHT22;6757;52.258;12.840;2024-03-17T16:14:34;14.30;72.20
7461;DHT22;6757;52.258;12.840;2024-03-17T16:17:03;13.80;72.50